createdAt,value
2023-04-10T00:00:02.201Z,0.00
2023-04-10T00:10:01.001Z,0.00
2023-04-10T00:20:01.238Z,0.00
2023-04-10T00:30:01.122Z,0.00
2023-04-10T00:40:05.031Z,0.00
2023-04-10T00:50:01.338Z,0.00
2023-04-10T01:00:02.912Z,0.00
2023-04-10T01:10:03.121Z,0.00
2023-04-10T01:20:01.275Z,0.00
2023-04-10T01:30:01.073Z,0.00
2023-04-10T01:40:01.269Z,0.00
2023-04-10T01:50:02.994Z,0.00
2023-04-10T02:00:03.387Z,0.00
2023-04-10T02:10:01.028Z,0.00
2023-04-10T02:20:01.036Z,0.00
2023-04-10T02:30:01.889Z,0.00
2023-04-10T02:40:01.285Z,0.00
2023-04-10T02:50:01.144Z,0.00
2023-04-10T03:00:01.241Z,0.00
2023-04-10T03:10:02.165Z,0.00
2023-04-10T03:20:01.074Z,0.00
2023-04-10T03:30:01.764Z,0.00
2023-04-10T03:40:01.409Z,0.00
2023-04-10T03:50:01.126Z,0.57
2023-04-10T04:00:01.078Z,3.96
2023-04-10T04:20:01.069Z,38.33
2023-04-10T04:30:00.324Z,101.67
2023-04-10T04:40:01.232Z,206.67
2023-04-10T04:50:01.257Z,355.00
2023-04-10T05:00:00.977Z,518.33
2023-04-10T05:10:02.336Z,673.33
2023-04-10T05:20:01.011Z,1673.75
2023-04-10T05:30:01.277Z,975.00
2023-04-10T05:40:01.008Z,1116.67
2023-04-10T06:00:00.982Z,1455.00
2023-04-10T06:10:01.295Z,2999.58
2023-04-10T06:20:01.506Z,1500.00
2023-04-10T06:30:01.149Z,1501.67
2023-04-10T06:40:01.296Z,1368.33
2023-04-10T06:50:01.297Z,1328.33
2023-04-10T07:00:00.780Z,1343.33
2023-04-10T07:10:01.268Z,2622.08
2023-04-10T07:20:01.354Z,1236.67
2023-04-10T07:30:03.643Z,1240.00
2023-04-10T07:40:02.143Z,1183.33
2023-04-10T07:50:03.684Z,2678.33
2023-04-10T08:00:02.127Z,1433.33
2023-04-10T08:10:01.147Z,1493.33
2023-04-10T08:20:00.827Z,3118.75
2023-04-10T08:30:02.160Z,3211.67
2023-04-10T08:40:01.965Z,3586.67
2023-04-10T08:50:01.072Z,1940.00
2023-04-10T09:00:04.404Z,4163.33
2023-04-10T09:10:00.906Z,2158.33
2023-04-10T09:20:01.658Z,2105.00
2023-04-10T09:30:01.317Z,4153.75
2023-04-10T09:40:00.837Z,2133.33
2023-04-10T09:50:02.327Z,2210.00
2023-04-10T10:00:01.355Z,2310.00
2023-04-10T10:10:00.920Z,4536.67
2023-04-10T10:20:01.036Z,4965.42
2023-04-10T10:30:03.119Z,5830.42
2023-04-10T10:40:02.306Z,29407.50
2023-04-10T10:50:01.231Z,27852.50
2023-04-10T11:00:01.158Z,27997.50
2023-04-10T11:10:01.092Z,29192.50
2023-04-10T11:20:01.232Z,25525.00
2023-04-10T11:30:01.318Z,30429.17
2023-04-10T11:40:00.805Z,28607.50
2023-04-10T11:50:01.335Z,29438.33
2023-04-10T12:00:01.272Z,30521.67
2023-04-10T12:10:00.941Z,28896.67
2023-04-10T12:20:01.202Z,31437.50
2023-04-10T12:30:01.667Z,32763.33
2023-04-10T12:40:01.125Z,25298.33
2023-04-10T12:50:03.896Z,30750.00
2023-04-10T13:00:00.845Z,29150.00
2023-04-10T13:10:01.304Z,27239.17
2023-04-10T13:20:03.007Z,27635.00
2023-04-10T13:30:01.031Z,29158.33
2023-04-10T13:40:00.832Z,26527.50
2023-04-10T13:50:01.081Z,25546.67
2023-04-10T14:00:01.046Z,28956.67
2023-04-10T14:10:01.805Z,28256.67
2023-04-10T14:20:01.030Z,11616.67
2023-04-10T14:30:00.790Z,29190.83
2023-04-10T14:40:00.872Z,26730.83
2023-04-10T14:50:02.825Z,23507.50
2023-04-10T15:00:00.830Z,14685.00
2023-04-10T15:10:02.292Z,15824.58
2023-04-10T15:20:01.777Z,4403.33
2023-04-10T15:30:02.088Z,14325.42
2023-04-10T15:40:01.273Z,14952.50
2023-04-10T15:50:01.062Z,9633.75
2023-04-10T16:00:01.269Z,15130.42
2023-04-10T16:10:00.865Z,14626.67
2023-04-10T16:20:00.305Z,10994.58
2023-04-10T16:30:01.577Z,8614.58
2023-04-10T16:40:02.094Z,6064.58
2023-04-10T16:50:01.071Z,4246.25
2023-04-10T17:00:01.501Z,3720.00
2023-04-10T17:10:02.654Z,1061.67
2023-04-10T17:20:00.844Z,715.00
2023-04-10T17:40:00.798Z,432.50
2023-04-10T17:50:00.854Z,183.33
2023-04-10T18:00:01.176Z,75.42
2023-04-10T18:10:01.105Z,21.25
2023-04-10T18:20:01.218Z,3.96
2023-04-10T18:30:00.930Z,0.68
2023-04-10T18:40:06.507Z,0.11
2023-04-10T18:50:00.877Z,0.11
2023-04-10T19:00:01.551Z,0.00
2023-04-10T19:10:01.046Z,0.00
2023-04-10T19:20:01.052Z,0.00
2023-04-10T19:30:01.108Z,0.00
2023-04-10T19:40:01.073Z,0.00
2023-04-10T19:50:01.034Z,0.00
2023-04-10T20:00:01.340Z,0.00
2023-04-10T20:10:01.363Z,0.00
2023-04-10T20:20:01.286Z,0.00
2023-04-10T20:30:01.345Z,0.00
2023-04-10T20:40:01.125Z,0.00
2023-04-10T20:50:01.507Z,0.00
2023-04-10T21:00:01.531Z,0.00
2023-04-10T21:10:01.422Z,0.00
2023-04-10T21:20:00.994Z,0.00
2023-04-10T21:30:01.091Z,0.00
2023-04-10T21:40:02.520Z,0.00
2023-04-10T21:50:01.020Z,0.00
2023-04-10T22:00:01.093Z,0.00
2023-04-10T22:10:01.108Z,0.00
2023-04-10T22:20:02.173Z,0.00
2023-04-10T22:30:03.607Z,0.00
2023-04-10T22:40:00.991Z,0.00
2023-04-10T22:50:00.354Z,0.00
2023-04-10T23:00:03.839Z,0.00
2023-04-10T23:10:01.104Z,0.00
2023-04-10T23:20:00.991Z,0.00
2023-04-10T23:30:01.197Z,0.00
2023-04-10T23:40:01.246Z,0.00
2023-04-10T23:50:01.876Z,0.00
